Time;durP1;ratioP1;P1;durP2;ratioP2;P2;SDS_P1;SDS_P2;PMS_P1;PMS_P2;Temp;Humidity;BMP_temperature;BMP_pressure;BME280_temperature;BME280_humidity;BME280_pressure;Samples;Min_cycle;Max_cycle;Signal;HPM_P1;HPM_P2
2023/09/09 00:02:15;;;;;;;6.20;3.97;;;;;;;14.42;100.00;93354.19;5031078;28;20048;-88
2023/09/09 00:08:03;;;;;;;5.60;4.40;;;;;;;14.25;100.00;93336.00;5017793;28;20484;-87
2023/09/09 00:10:35;;;;;;;6.50;3.60;;;;;;;14.68;100.00;93401.19;5041967;28;20044;-87
2023/09/09 00:13:02;;;;;;;5.95;4.00;;;;;;;14.96;100.00;93443.63;5035182;28;20053;-88
2023/09/09 00:15:29;;;;;;;7.75;4.15;;;;;;;14.87;100.00;93442.41;5031600;28;20057;-87
2023/09/09 00:17:56;;;;;;;5.80;4.47;;;;;;;14.84;100.00;93441.06;5031504;28;20041;-88
2023/09/09 00:20:29;;;;;;;5.28;3.90;;;;;;;14.37;100.00;93391.06;5035618;28;20042;-87
2023/09/09 00:22:56;;;;;;;5.60;4.15;;;;;;;14.63;100.00;93424.38;5031093;28;20053;-87
2023/09/09 00:25:23;;;;;;;5.97;4.50;;;;;;;14.69;100.00;93442.31;5033568;28;20053;-86
2023/09/09 00:27:51;;;;;;;6.10;4.40;;;;;;;14.64;100.00;93439.66;5034776;28;20044;-86
2023/09/09 00:30:18;;;;;;;5.07;4.20;;;;;;;14.66;100.00;93439.41;5031346;28;20563;-85
2023/09/09 00:32:44;;;;;;;7.57;4.55;;;;;;;14.39;100.00;93408.88;5032112;28;20048;-86
2023/09/09 00:35:11;;;;;;;5.47;4.30;;;;;;;14.57;100.00;93450.13;5031781;28;20466;-87
2023/09/09 00:37:38;;;;;;;7.43;4.57;;;;;;;14.16;100.00;93403.56;5031295;28;20063;-88
2023/09/09 00:40:06;;;;;;;6.07;4.45;;;;;;;14.41;100.00;93441.25;5031566;28;20045;-88
2023/09/09 00:42:33;;;;;;;6.53;4.65;;;;;;;14.23;100.00;93421.53;5033516;28;20112;-88
2023/09/09 00:45:01;;;;;;;5.88;4.43;;;;;;;14.38;100.00;93446.09;5031248;28;20053;-87
2023/09/09 00:47:28;;;;;;;5.45;4.20;;;;;;;14.41;100.00;93458.56;5032325;28;20115;-88
2023/09/09 00:49:55;;;;;;;7.55;4.60;;;;;;;13.92;100.00;93378.78;5031190;28;20053;-88
2023/09/09 00:52:23;;;;;;;5.72;4.43;;;;;;;14.37;100.00;93424.66;5032831;28;20068;-88
2023/09/09 00:54:51;;;;;;;6.38;4.75;;;;;;;14.16;100.00;93400.97;5030943;28;20119;-88
2023/09/09 00:57:18;;;;;;;6.75;5.22;;;;;;;14.45;100.00;93433.06;5030763;28;20551;-88
2023/09/09 00:59:44;;;;;;;6.72;4.53;;;;;;;14.44;100.00;93442.59;5031136;28;20049;-88
2023/09/09 01:02:13;;;;;;;6.25;4.97;;;;;;;14.30;100.00;93426.53;5034978;28;20049;-88
2023/09/09 01:04:40;;;;;;;5.88;4.70;;;;;;;13.87;100.00;93362.16;5030514;28;20110;-88
2023/09/09 01:07:06;;;;;;;8.02;5.13;;;;;;;14.34;100.00;93435.44;5043007;28;20056;-85
2023/09/09 01:09:33;;;;;;;;;;;;;;;14.29;100.00;93436.13;5033241;28;20115;-86
2023/09/09 01:12:01;;;;;;;6.65;4.28;;;;;;;14.23;100.00;93438.81;5030302;28;19925;-86
2023/09/09 01:14:27;;;;;;;9.27;5.43;;;;;;;14.28;100.00;93437.13;5032511;28;20073;-86
2023/09/09 01:16:55;;;;;;;6.53;4.75;;;;;;;14.08;100.00;93411.66;5039966;28;20053;-87
2023/09/09 01:19:26;;;;;;;8.00;4.97;;;;;;;14.10;100.00;93417.38;5039149;28;20877;-87
2023/09/09 01:21:54;;;;;;;5.60;4.47;;;;;;;14.11;100.00;93421.53;5040851;28;20073;-88
2023/09/09 01:24:22;;;;;;;7.97;4.50;;;;;;;14.13;100.00;93424.66;5040299;28;20085;-88
2023/09/09 01:26:49;;;;;;;9.00;5.20;;;;;;;14.15;100.00;93421.84;5040210;28;20837;-88
2023/09/09 01:29:16;;;;;;;7.18;4.90;;;;;;;14.13;100.00;93423.88;5038543;28;20052;-88
2023/09/09 01:31:43;;;;;;;8.30;5.63;;;;;;;14.09;100.00;93428.72;5038771;28;20496;-88
2023/09/09 01:34:09;;;;;;;5.70;4.25;;;;;;;14.00;100.00;93417.16;5035569;28;20060;-87
2023/09/09 01:36:36;;;;;;;7.13;5.10;;;;;;;13.93;100.00;93406.16;5041421;28;20045;-87
2023/09/09 01:39:03;;;;;;;7.28;4.35;;;;;;;14.03;100.00;93425.22;5035624;28;20042;-88
2023/09/09 01:41:34;;;;;;;6.35;5.28;;;;;;;13.56;100.00;93356.31;5041302;28;20136;-87
2023/09/09 01:44:01;;;;;;;6.82;5.15;;;;;;;13.78;100.00;93407.38;5042303;28;20218;-88
2023/09/09 01:46:27;;;;;;;6.35;4.82;;;;;;;13.95;100.00;93445.44;5039314;28;20048;-87
2023/09/09 01:48:54;;;;;;;6.03;4.63;;;;;;;13.89;100.00;93440.16;5040235;28;20462;-85
2023/09/09 01:51:21;;;;;;;7.68;5.45;;;;;;;13.92;100.00;93436.34;5041868;28;20099;-87
2023/09/09 01:53:47;;;;;;;6.05;4.82;;;;;;;13.90;100.00;93441.72;5042043;28;20102;-86
2023/09/09 01:56:14;;;;;;;6.07;4.78;;;;;;;13.90;100.00;93444.31;5038919;28;20057;-86
2023/09/09 01:58:42;;;;;;;6.45;5.50;;;;;;;13.78;100.00;93430.63;5041019;28;20111;-84
2023/09/09 02:01:09;;;;;;;6.00;4.80;;;;;;;13.59;100.00;93406.69;5039529;28;20108;-88
2023/09/09 02:03:36;;;;;;;5.65;4.78;;;;;;;13.79;100.00;93439.94;5041684;28;20450;-88
2023/09/09 02:06:03;;;;;;;7.03;5.35;;;;;;;13.45;100.00;93388.03;5041421;28;20103;-87
2023/09/09 02:08:29;;;;;;;7.45;5.15;;;;;;;13.60;100.00;93416.81;5041105;28;20153;-88
2023/09/09 02:10:56;;;;;;;6.72;5.15;;;;;;;13.68;100.00;93443.28;5038112;28;20061;-86
2023/09/09 02:13:23;;;;;;;6.78;5.13;;;;;;;13.70;100.00;93434.31;5039240;28;20115;-88
2023/09/09 02:15:51;;;;;;;10.60;5.20;;;;;;;13.66;100.00;93435.00;5041554;28;20554;-88
2023/09/09 02:18:18;;;;;;;6.47;5.20;;;;;;;13.71;100.00;93432.53;5038894;28;20063;-88
2023/09/09 02:20:44;;;;;;;6.88;4.95;;;;;;;13.65;100.00;93430.84;5040898;28;20055;-85
2023/09/09 02:23:11;;;;;;;6.47;4.28;;;;;;;13.66;100.00;93427.25;5039273;28;20041;-88
2023/09/09 02:25:38;;;;;;;6.60;5.03;;;;;;;13.49;100.00;93408.06;5038031;28;20049;-88
2023/09/09 02:28:05;;;;;;;6.85;5.15;;;;;;;13.68;100.00;93438.94;5039760;28;20052;-88
2023/09/09 02:30:32;;;;;;;7.00;4.95;;;;;;;13.64;100.00;93440.38;5039049;28;20050;-88
2023/09/09 02:33:00;;;;;;;9.63;4.70;;;;;;;13.34;100.00;93402.50;5036907;28;20079;-87
2023/09/09 02:35:27;;;;;;;7.85;5.22;;;;;;;13.51;100.00;93438.78;5038582;28;20491;-87
2023/09/09 02:37:54;;;;;;;6.22;4.55;;;;;;;13.50;100.00;93437.22;5041132;28;20056;-87
2023/09/09 02:40:20;;;;;;;6.00;4.70;;;;;;;13.02;100.00;93369.22;5036824;28;20568;-87
2023/09/09 02:42:47;;;;;;;6.63;4.78;;;;;;;13.35;100.00;93427.28;5037423;28;20055;-87
2023/09/09 02:45:14;;;;;;;8.00;5.05;;;;;;;13.36;100.00;93436.59;5039652;28;20106;-87
2023/09/09 02:47:41;;;;;;;7.35;5.05;;;;;;;13.36;100.00;93431.44;5039835;28;20207;-87
2023/09/09 02:50:10;;;;;;;6.65;5.38;;;;;;;13.36;100.00;93432.22;5038699;28;20491;-88
2023/09/09 02:52:36;;;;;;;6.85;4.72;;;;;;;13.22;100.00;93413.56;5039767;28;20095;-88
2023/09/09 02:55:03;;;;;;;7.20;5.20;;;;;;;13.29;100.00;93430.75;5038132;28;20058;-87
2023/09/09 02:57:30;;;;;;;8.82;5.20;;;;;;;13.19;100.00;93421.75;5038959;28;20104;-87
2023/09/09 02:59:57;;;;;;;6.05;5.35;;;;;;;13.15;100.00;93436.06;5039134;28;20099;-87
2023/09/09 03:02:23;;;;;;;6.35;5.40;;;;;;;13.04;100.00;93418.78;5038948;28;20041;-87
2023/09/09 03:04:50;;;;;;;7.03;5.03;;;;;;;13.12;100.00;93435.72;5041117;28;20103;-86
2023/09/09 03:07:18;;;;;;;7.22;5.15;;;;;;;12.95;100.00;93424.25;5042228;28;20056;-87
2023/09/09 03:09:45;;;;;;;7.18;4.90;;;;;;;12.95;100.00;93429.41;5042681;28;20121;-88
2023/09/09 03:12:12;;;;;;;6.80;5.00;;;;;;;12.82;100.00;93411.50;5039731;28;20554;-87
2023/09/09 03:14:39;;;;;;;7.00;5.10;;;;;;;12.91;100.00;93437.81;5039165;28;20049;-87
2023/09/09 03:17:06;;;;;;;7.50;4.68;;;;;;;12.93;100.00;93431.44;5043258;28;20044;-87
2023/09/09 03:19:34;;;;;;;5.97;5.13;;;;;;;12.76;100.00;93414.97;5041384;28;20503;-87
2023/09/09 03:22:00;;;;;;;5.97;5.03;;;;;;;12.42;100.00;93385.25;5043433;28;20060;-87
2023/09/09 03:24:28;;;;;;;5.90;5.10;;;;;;;12.78;100.00;93433.59;5040866;28;20044;-87
2023/09/09 03:26:55;;;;;;;5.75;4.78;;;;;;;12.54;100.00;93394.81;5042517;28;20119;-86
2023/09/09 03:29:22;;;;;;;6.20;5.22;;;;;;;12.73;100.00;93436.03;5039880;28;20111;-86
2023/09/09 03:31:49;;;;;;;7.35;5.55;;;;;;;12.66;100.00;93424.03;5041283;28;20095;-86
2023/09/09 03:34:16;;;;;;;7.00;5.15;;;;;;;12.27;100.00;93377.88;5041900;28;20115;-87
2023/09/09 03:36:43;;;;;;;6.88;5.30;;;;;;;12.66;100.00;93436.09;5040209;28;20045;-87
2023/09/09 03:39:09;;;;;;;7.30;5.13;;;;;;;12.02;100.00;93342.69;5042801;28;20504;-87
2023/09/09 03:41:39;;;;;;;7.35;5.82;;;;;;;12.66;100.00;93433.53;5040912;28;20091;-87
2023/09/09 03:44:06;;;;;;;6.78;5.05;;;;;;;12.66;100.00;93430.97;5042500;28;20498;-86
2023/09/09 03:46:33;;;;;;;6.68;5.43;;;;;;;12.64;100.00;93427.81;5040715;28;20045;-86
2023/09/09 03:49:00;;;;;;;7.30;5.85;;;;;;;12.54;100.00;93413.66;5042279;28;20057;-85
2023/09/09 03:51:28;;;;;;;8.60;5.65;;;;;;;12.53;100.00;93421.59;5040434;28;20419;-86
2023/09/09 03:53:54;;;;;;;8.90;5.80;;;;;;;12.04;100.00;93360.53;5038851;28;20049;-87
2023/09/09 03:56:21;;;;;;;8.13;5.00;;;;;;;12.35;100.00;93392.25;5037349;28;20048;-87
2023/09/09 03:58:51;;;;;;;8.27;6.07;;;;;;;12.56;100.00;93434.06;5041092;28;20478;-87
2023/09/09 04:01:18;;;;;;;8.23;5.18;;;;;;;12.44;100.00;93413.38;5040612;28;20045;-87
2023/09/09 04:03:44;;;;;;;8.57;5.68;;;;;;;12.53;100.00;93432.69;5040115;28;20041;-85
2023/09/09 04:06:12;;;;;;;7.68;6.13;;;;;;;12.45;100.00;93425.25;5040408;28;20095;-86
2023/09/09 04:08:40;;;;;;;9.18;6.00;;;;;;;12.38;100.00;93419.38;5034456;28;20044;-85
2023/09/09 04:11:07;;;;;;;6.82;5.15;;;;;;;12.26;100.00;93390.97;5040151;28;20135;-85
2023/09/09 04:13:40;;;;;;;8.95;6.13;;;;;;;12.52;100.00;93435.47;5037187;28;20049;-86
2023/09/09 04:16:08;;;;;;;7.90;5.60;;;;;;;12.40;100.00;93420.75;5039702;28;20053;-85
2023/09/09 04:18:35;;;;;;;8.57;5.63;;;;;;;12.24;100.00;93386.06;5037424;28;20052;-85
2023/09/09 04:21:02;;;;;;;7.25;5.85;;;;;;;12.54;100.00;93433.47;5040759;28;20056;-87
2023/09/09 04:23:28;;;;;;;9.23;5.90;;;;;;;12.06;100.00;93365.44;5039831;28;20053;-87
2023/09/09 04:25:55;;;;;;;8.20;6.43;;;;;;;12.55;100.00;93430.69;5035796;28;20053;-86
2023/09/09 04:28:22;;;;;;;8.75;6.53;;;;;;;12.55;100.00;93433.25;5039508;28;20045;-86
2023/09/09 04:30:49;;;;;;;7.97;6.18;;;;;;;12.28;100.00;93405.22;5033231;28;20115;-86
2023/09/09 04:33:17;;;;;;;7.35;5.85;;;;;;;12.11;100.00;93368.16;5034077;28;20136;-87
2023/09/09 04:35:44;;;;;;;9.80;6.43;;;;;;;12.43;100.00;93425.47;5029222;28;20053;-87
2023/09/09 04:38:11;;;;;;;7.10;5.63;;;;;;;11.93;100.00;93345.75;5028007;28;20045;-86
2023/09/09 04:40:41;;;;;;;7.93;6.03;;;;;;;12.51;100.00;93433.91;5030588;28;20562;-85
2023/09/09 04:43:08;;;;;;;7.90;5.75;;;;;;;12.32;100.00;93420.25;5033714;28;20065;-85
2023/09/09 04:45:34;;;;;;;7.85;6.20;;;;;;;12.45;100.00;93434.78;5041585;28;20096;-86
2023/09/09 04:48:01;;;;;;;8.50;6.47;;;;;;;12.40;100.00;93440.56;5036669;28;20045;-84
2023/09/09 04:50:29;;;;;;;9.80;6.65;;;;;;;12.32;100.00;93423.63;5039635;28;20238;-85
2023/09/09 04:52:58;;;;;;;8.98;6.35;;;;;;;12.41;100.00;93434.41;5039485;28;20052;-88
2023/09/09 04:55:25;;;;;;;7.72;6.25;;;;;;;12.47;100.00;93432.75;5040475;28;20056;-87
2023/09/09 04:57:52;;;;;;;8.90;6.78;;;;;;;11.83;100.00;93341.09;5035859;28;20450;-87
2023/09/09 05:00:20;;;;;;;7.80;6.32;;;;;;;12.48;100.00;93432.56;5035573;28;20563;-86
2023/09/09 05:02:47;;;;;;;8.43;5.88;;;;;;;12.49;100.00;93428.97;5039528;28;20041;-87
2023/09/09 05:05:13;;;;;;;9.32;6.13;;;;;;;12.16;100.00;93374.25;5036721;28;20049;-86
2023/09/09 05:07:42;;;;;;;9.30;6.32;;;;;;;12.64;100.00;93431.16;5038337;28;20468;-86
2023/09/09 05:10:09;;;;;;;7.68;6.03;;;;;;;12.18;100.00;93352.66;5040360;28;20095;-86
2023/09/09 05:12:36;;;;;;;9.82;6.82;;;;;;;12.75;100.00;93432.25;5039797;28;20511;-86
2023/09/09 05:15:05;;;;;;;8.85;6.45;;;;;;;12.79;100.00;93435.97;5040301;28;20041;-86
2023/09/09 05:17:31;;;;;;;9.63;5.82;;;;;;;12.82;100.00;93421.81;5042707;28;20083;-86
2023/09/09 05:19:58;;;;;;;11.85;6.97;;;;;;;12.67;100.00;93386.94;5045566;28;20454;-85
2023/09/09 05:22:25;;;;;;;8.85;5.68;;;;;;;13.03;100.00;93427.53;5041157;28;20049;-85
2023/09/09 05:24:53;;;;;;;9.77;7.35;;;;;;;13.07;100.00;93426.09;5043006;28;20478;-86
2023/09/09 05:27:20;;;;;;;9.25;7.07;;;;;;;12.58;100.00;93354.72;5039186;28;20566;-86
2023/09/09 05:29:47;;;;;;;7.32;6.63;;;;;;;12.93;100.00;93382.44;5043200;28;20268;-86
2023/09/09 05:32:15;;;;;;;8.88;6.65;;;;;;;13.22;100.00;93400.69;5044809;28;20049;-85
2023/09/09 05:34:41;;;;;;;8.18;6.78;;;;;;;13.28;100.00;93399.00;5044400;28;20119;-86
2023/09/09 05:37:08;;;;;;;9.32;7.03;;;;;;;13.53;100.00;93428.22;5041866;28;20103;-86
2023/09/09 05:39:35;;;;;;;9.38;7.38;;;;;;;13.64;100.00;93430.03;5043714;28;20048;-86
2023/09/09 05:42:05;;;;;;;8.60;7.40;;;;;;;13.78;100.00;93430.63;5043877;28;20103;-87
2023/09/09 05:44:32;;;;;;;12.15;6.90;;;;;;;13.94;100.00;93429.19;5041193;28;20968;-86
2023/09/09 05:46:58;;;;;;;9.52;6.82;;;;;;;14.05;100.00;93424.22;5043392;28;20054;-86
2023/09/09 05:49:25;;;;;;;7.93;7.03;;;;;;;14.21;100.00;93418.38;5039314;28;20057;-86
2023/09/09 05:51:52;;;;;;;13.75;9.15;;;;;;;14.29;100.00;93425.78;5043503;28;20422;-86
2023/09/09 05:54:19;;;;;;;11.27;8.68;;;;;;;14.33;100.00;93400.25;5039507;28;20099;-86
2023/09/09 05:56:47;;;;;;;13.63;8.93;;;;;;;14.60;100.00;93422.22;5043235;28;20052;-86
2023/09/09 05:59:16;;;;;;;12.23;9.13;;;;;;;14.40;100.00;93388.00;5042527;28;20446;-86
2023/09/09 06:01:42;;;;;;;14.35;9.82;;;;;;;14.72;100.00;93414.44;5042926;28;20049;-87
2023/09/09 06:04:09;;;;;;;13.40;9.43;;;;;;;14.79;100.00;93412.53;5040938;28;20047;-87
2023/09/09 06:06:36;;;;;;;16.20;10.68;;;;;;;14.94;100.00;93414.59;5039839;28;20045;-87
2023/09/09 06:09:03;;;;;;;14.00;10.45;;;;;;;14.73;100.00;93374.63;5041694;28;20457;-87
2023/09/09 06:11:30;;;;;;;13.93;10.77;;;;;;;14.98;100.00;93405.38;5042073;28;20076;-87
2023/09/09 06:13:57;;;;;;;14.52;10.63;;;;;;;15.31;100.00;93428.94;5042691;28;20060;-88
2023/09/09 06:16:25;;;;;;;14.15;11.05;;;;;;;15.43;100.00;93424.50;5039571;28;20049;-87
2023/09/09 06:18:52;;;;;;;13.43;10.88;;;;;;;15.42;100.00;93404.78;5039812;28;20045;-86
2023/09/09 06:21:21;;;;;;;15.73;11.05;;;;;;;15.69;100.00;93426.72;5042694;28;20606;-87
2023/09/09 06:23:48;;;;;;;13.15;10.82;;;;;;;15.79;100.00;93406.16;5040651;28;20505;-87
2023/09/09 06:26:14;;;;;;;13.63;9.77;;;;;;;15.97;100.00;93420.66;5040838;28;20048;-87
2023/09/09 06:28:41;;;;;;;13.68;11.15;;;;;;;16.11;100.00;93418.53;5041017;28;20127;-87
2023/09/09 06:31:11;;;;;;;18.25;15.25;;;;;;;16.09;100.00;93401.63;5040887;28;20053;-86
2023/09/09 06:33:39;;;;;;;13.38;10.43;;;;;;;16.17;100.00;93398.66;5040236;28;20041;-87
2023/09/09 06:36:06;;;;;;;12.65;9.95;;;;;;;16.49;100.00;93407.59;5038538;28;20054;-87
2023/09/09 06:38:33;;;;;;;16.10;10.38;;;;;;;16.78;100.00;93430.72;5039729;28;20046;-87
2023/09/09 06:43:41;;;;;;;13.55;10.55;;;;;;;17.18;100.00;93428.84;5039110;28;20056;-86
2023/09/09 06:46:07;;;;;;;9.35;7.68;;;;;;;17.29;100.00;93425.31;5041007;28;20084;-87
2023/09/09 06:48:34;;;;;;;11.25;7.60;;;;;;;17.49;100.00;93427.31;5038596;28;20037;-87
2023/09/09 06:51:03;;;;;;;10.50;7.20;;;;;;;17.52;100.00;93418.22;5040750;28;20057;-88
2023/09/09 06:53:29;;;;;;;13.40;6.90;;;;;;;17.26;100.00;93357.53;5045603;28;20056;-88
2023/09/09 06:55:57;;;;;;;13.23;6.50;;;;;;;17.56;100.00;93371.75;5041510;28;20057;-88
2023/09/09 06:58:24;;;;;;;8.32;6.05;;;;;;;17.95;100.00;93418.28;5037992;28;20557;-86
2023/09/09 07:00:51;;;;;;;10.85;5.85;;;;;;;17.83;98.63;93373.50;5036833;28;20048;-87
2023/09/09 07:03:19;;;;;;;8.10;5.40;;;;;;;18.14;94.59;93412.69;5035367;28;20164;-84
2023/09/09 07:05:46;;;;;;;7.88;5.00;;;;;;;17.98;90.55;93358.00;5031575;28;20045;-88
2023/09/09 07:08:16;;;;;;;7.65;4.63;;;;;;;18.73;87.77;93416.06;5033825;28;20160;-88
2023/09/09 07:10:49;;;;;;;4.82;3.47;;;;;;;19.06;82.75;93426.34;5030563;28;20070;-86
2023/09/09 07:13:16;;;;;;;5.35;3.42;;;;;;;19.30;78.15;93433.69;5038325;28;20380;-86
2023/09/09 07:15:43;;;;;;;4.63;2.72;;;;;;;19.29;73.31;93442.53;5040555;28;20045;-88
2023/09/09 07:18:10;;;;;;;4.97;3.45;;;;;;;19.50;75.70;93435.53;5036220;28;20048;-87
2023/09/09 07:20:57;;;;;;;4.45;3.10;;;;;;;19.57;77.04;93435.25;5031538;28;20044;-86
2023/09/09 07:23:26;;;;;;;5.20;2.95;;;;;;;19.22;74.78;93369.88;5035991;28;20044;-88
2023/09/09 07:25:53;;;;;;;5.93;3.28;;;;;;;19.79;74.85;93442.03;5025330;28;20049;-85
2023/09/09 07:28:22;;;;;;;4.30;2.92;;;;;;;19.82;75.25;93434.50;5039216;28;20099;-86
2023/09/09 07:30:50;;;;;;;4.57;2.50;;;;;;;19.63;71.15;93398.53;5041497;28;20060;-89
2023/09/09 07:33:20;;;;;;;4.03;2.60;;;;;;;19.98;67.53;93430.06;5042768;28;20048;-88
2023/09/09 07:35:52;;;;;;;5.68;2.80;;;;;;;19.92;68.17;93401.63;5043088;28;20049;-84
2023/09/09 07:38:19;;;;;;;6.72;3.17;;;;;;;20.40;69.37;93446.41;5041637;28;20980;-86
2023/09/09 07:40:48;;;;;;;4.70;2.72;;;;;;;20.38;67.32;93400.78;5027818;28;20057;-88
2023/09/09 07:43:18;;;;;;;5.53;2.47;;;;;;;20.41;62.97;93395.78;5027744;28;20049;-86
2023/09/09 07:45:48;;;;;;;4.22;2.33;;;;;;;20.72;62.15;93460.16;5029362;28;20045;-87
2023/09/09 07:48:14;;;;;;;4.30;2.40;;;;;;;20.40;61.80;93401.28;5028259;28;20748;-86
2023/09/09 07:50:41;;;;;;;3.83;2.25;;;;;;;20.65;59.39;93446.59;5031022;28;20606;-85
2023/09/09 07:53:08;;;;;;;4.95;2.20;;;;;;;20.78;54.75;93435.59;5031728;28;20057;-87
2023/09/09 07:55:48;;;;;;;3.97;1.90;;;;;;;20.80;56.34;93430.88;5034638;28;20049;-87
2023/09/09 07:58:17;;;;;;;4.63;2.10;;;;;;;20.75;59.26;93441.34;5034475;28;20068;-85
2023/09/09 08:00:44;;;;;;;3.03;1.90;;;;;;;20.34;55.44;93420.59;5034840;28;20442;-84
2023/09/09 08:03:12;;;;;;;4.15;2.10;;;;;;;20.37;53.24;93413.03;5031817;28;20060;-86
2023/09/09 08:05:39;;;;;;;3.47;1.88;;;;;;;20.79;55.45;93428.53;5035427;28;20657;-88
2023/09/09 08:08:06;;;;;;;2.95;1.70;;;;;;;20.96;52.07;93454.31;5027971;28;20123;-85
2023/09/09 08:10:34;;;;;;;4.18;2.10;;;;;;;20.51;54.30;93371.50;5029052;28;20788;-89
2023/09/09 08:13:01;;;;;;;5.40;2.78;;;;;;;20.70;56.89;93408.19;5029474;28;20430;-86
2023/09/09 08:15:29;;;;;;;5.38;2.70;;;;;;;20.72;58.50;93388.88;5028056;28;20056;-87
2023/09/09 08:17:59;;;;;;;4.18;2.17;;;;;;;21.15;53.85;93445.91;5036156;28;20053;-86
2023/09/09 08:20:26;;;;;;;3.63;1.70;;;;;;;21.22;53.07;93421.03;5031349;28;20407;-88
2023/09/09 08:22:53;;;;;;;4.13;2.03;;;;;;;21.23;52.77;93453.16;5030671;28;20052;-82
2023/09/09 08:25:19;;;;;;;2.95;1.95;;;;;;;21.15;51.04;93453.72;5030774;28;20057;-88
2023/09/09 08:27:46;;;;;;;3.20;1.80;;;;;;;21.18;52.18;93448.75;5037225;28;20049;-86
2023/09/09 08:30:15;;;;;;;3.90;1.80;;;;;;;21.28;52.64;93421.78;5036422;28;20049;-88
2023/09/09 08:32:43;;;;;;;3.78;1.77;;;;;;;21.63;52.84;93445.31;5038241;28;20127;-89
2023/09/09 08:35:10;;;;;;;3.70;1.95;;;;;;;21.50;51.31;93412.75;5032048;28;20172;-87
2023/09/09 08:37:37;;;;;;;3.20;1.85;;;;;;;21.27;51.37;93417.59;5037379;28;20056;-87
2023/09/09 08:40:04;;;;;;;4.35;1.85;;;;;;;21.30;52.43;93437.19;5031770;28;20064;-86
2023/09/09 08:42:44;;;;;;;4.88;2.03;;;;;;;21.31;53.07;93425.66;5036591;28;20049;-84
2023/09/09 08:45:22;;;;;;;4.22;1.95;;;;;;;21.32;52.18;93408.94;5031392;28;20084;-85
2023/09/09 08:47:51;;;;;;;4.22;2.15;;;;;;;21.21;51.34;93400.41;5030693;28;20064;-84
2023/09/09 08:50:20;;;;;;;2.90;2.05;;;;;;;21.40;50.21;93407.59;5034479;28;20887;-85
2023/09/09 08:52:50;;;;;;;3.22;1.63;;;;;;;21.57;49.99;93418.44;5030972;28;21023;-85
2023/09/09 08:55:17;;;;;;;3.30;1.92;;;;;;;21.60;48.46;93428.34;5034851;28;20098;-83
2023/09/09 08:57:44;;;;;;;4.80;1.90;;;;;;;21.78;49.40;93423.53;5048992;28;20057;-84
2023/09/09 09:00:14;;;;;;;4.47;2.30;;;;;;;22.06;51.36;93430.84;5048504;28;20055;-84
2023/09/09 09:02:41;;;;;;;5.65;2.08;;;;;;;22.08;48.86;93436.63;5030299;28;20526;-88
2023/09/09 09:05:11;;;;;;;3.75;1.55;;;;;;;22.06;46.17;93433.47;5032380;28;20057;-88
2023/09/09 09:07:38;;;;;;;2.88;1.70;;;;;;;22.13;46.20;93447.78;5030466;28;20851;-87
2023/09/09 09:10:05;;;;;;;4.78;2.33;;;;;;;22.05;49.40;93422.25;5041642;28;20916;-84
2023/09/09 09:12:37;;;;;;;2.97;1.50;;;;;;;22.46;46.91;93428.13;5030283;28;20057;-89
2023/09/09 09:15:11;;;;;;;3.22;1.77;;;;;;;22.28;48.25;93427.78;5029654;28;20487;-88
2023/09/09 09:17:40;;;;;;;4.03;1.90;;;;;;;22.31;46.80;93434.28;5029917;28;20152;-88
2023/09/09 09:20:25;;;;;;;2.92;1.80;;;;;;;22.50;46.91;93434.34;5038062;28;20059;-86
2023/09/09 09:22:52;;;;;;;3.13;1.70;;;;;;;22.48;44.52;93439.06;5029624;28;20073;-86
2023/09/09 09:25:20;;;;;;;2.58;1.48;;;;;;;22.26;43.83;93448.97;5035400;28;20052;-83
2023/09/09 09:27:47;;;;;;;4.13;1.80;;;;;;;21.94;44.78;93366.63;5029650;28;20107;-88
2023/09/09 09:30:23;;;;;;;2.40;1.40;;;;;;;22.66;43.24;93414.03;5029563;28;20080;-85
2023/09/09 09:32:52;;;;;;;7.78;2.10;;;;;;;22.59;40.59;93424.06;5034232;28;20084;-88
2023/09/09 09:35:27;;;;;;;4.15;1.30;;;;;;;22.69;41.25;93435.19;5029061;28;20057;-85
2023/09/09 09:37:56;;;;;;;4.82;1.80;;;;;;;22.64;42.34;93422.16;5034021;28;20593;-85
2023/09/09 09:40:23;;;;;;;3.67;1.80;;;;;;;22.85;41.22;93406.22;5029124;28;20053;-87
2023/09/09 09:42:50;;;;;;;4.03;1.70;;;;;;;23.13;41.77;93401.13;5032359;28;20451;-87
2023/09/09 09:45:18;;;;;;;3.33;1.55;;;;;;;23.14;39.84;93405.28;5029743;28;20073;-82
2023/09/09 09:47:46;;;;;;;3.33;1.45;;;;;;;23.26;39.79;93407.50;5036841;28;20577;-84
2023/09/09 09:50:22;;;;;;;3.35;1.50;;;;;;;23.21;37.05;93412.81;5029632;28;20144;-84
2023/09/09 09:52:57;;;;;;;3.53;1.50;;;;;;;23.45;37.26;93393.63;5029608;28;20204;-86
2023/09/09 09:55:24;;;;;;;2.58;1.45;;;;;;;23.13;38.40;93398.50;5029883;28;20133;-83
2023/09/09 09:57:54;;;;;;;2.95;1.48;;;;;;;23.12;37.86;93402.19;5029192;28;20095;-83
2023/09/09 10:00:21;;;;;;;2.33;1.38;;;;;;;23.06;38.89;93391.00;5029984;28;20127;-85
2023/09/09 10:02:55;;;;;;;2.65;1.40;;;;;;;23.39;37.55;93386.91;5032479;28;20103;-86
2023/09/09 10:05:24;;;;;;;3.55;1.42;;;;;;;23.35;35.54;93386.69;5030845;28;20046;-81
2023/09/09 10:07:57;;;;;;;2.97;1.33;;;;;;;23.60;35.52;93390.75;5031757;28;20503;-86
2023/09/09 10:10:26;;;;;;;3.63;1.70;;;;;;;23.84;35.79;93374.09;5032763;28;20455;-85
2023/09/09 10:12:59;;;;;;;2.70;0.85;;;;;;;23.91;31.67;93368.47;5032357;28;20087;-85
2023/09/09 10:15:30;;;;;;;2.33;1.38;;;;;;;23.74;36.05;93372.44;5032951;28;20049;-87
2023/09/09 10:18:00;;;;;;;3.50;1.35;;;;;;;23.55;37.63;93377.72;5033491;28;20693;-82
2023/09/09 10:20:29;;;;;;;2.63;1.33;;;;;;;23.53;38.74;93330.06;5031587;28;20176;-87
2023/09/09 10:22:59;;;;;;;2.95;1.70;;;;;;;23.95;37.99;93377.34;5029190;28;20088;-87
2023/09/09 10:25:27;;;;;;;11.98;1.60;;;;;;;23.76;37.69;93372.91;5034378;28;20095;-85
2023/09/09 10:27:56;;;;;;;2.80;1.50;;;;;;;23.29;36.31;93317.03;5028581;28;20049;-88
2023/09/09 10:30:24;;;;;;;2.40;1.48;;;;;;;23.83;36.08;93369.16;5030086;28;20061;-83
2023/09/09 10:32:51;;;;;;;4.45;1.15;;;;;;;24.13;35.86;93357.38;5033752;28;20045;-85
2023/09/09 10:35:18;;;;;;;3.15;1.52;;;;;;;23.01;35.03;93265.31;5028655;28;20266;-85
2023/09/09 10:37:46;;;;;;;3.15;1.08;;;;;;;23.81;34.83;93356.31;5028258;28;20111;-85
2023/09/09 10:40:16;;;;;;;3.30;1.30;;;;;;;23.69;32.94;93364.66;5032474;28;20046;-88
2023/09/09 10:42:44;;;;;;;2.35;1.23;;;;;;;23.66;33.55;93349.50;5028165;28;20565;-85
2023/09/09 10:45:27;;;;;;;2.17;1.20;;;;;;;23.92;34.78;93337.78;5028302;28;20116;-83
2023/09/09 10:47:56;;;;;;;4.47;1.15;;;;;;;23.80;34.57;93314.66;5028428;28;20049;-84
2023/09/09 10:50:23;;;;;;;3.50;1.30;;;;;;;24.11;35.58;93343.75;5031900;28;20080;-88
2023/09/09 10:53:13;;;;;;;2.05;1.15;;;;;;;23.84;34.12;93347.88;5028570;28;20049;-83
2023/09/09 10:55:42;;;;;;;3.33;1.58;;;;;;;24.12;36.47;93347.16;5042483;28;20151;-83
2023/09/09 10:58:09;;;;;;;4.25;2.05;;;;;;;24.12;35.94;93341.91;5027559;28;20052;-84
2023/09/09 11:00:41;;;;;;;3.78;1.55;;;;;;;24.18;34.99;93335.50;5028448;28;20053;-85
2023/09/09 11:03:12;;;;;;;3.03;1.42;;;;;;;24.36;34.48;93343.53;5028849;28;20680;-83
2023/09/09 11:05:58;;;;;;;3.90;1.95;;;;;;;24.32;36.79;93343.34;5027115;28;20692;-82
2023/09/09 11:08:28;;;;;;;2.85;1.50;;;;;;;23.91;36.62;93331.75;5030310;28;20044;-83
2023/09/09 11:11:07;;;;;;;2.78;1.58;;;;;;;24.07;37.91;93311.25;5028720;28;20053;-83
2023/09/09 11:13:49;;;;;;;2.50;1.20;;;;;;;24.07;37.23;93265.88;5028311;28;20053;-82
2023/09/09 11:16:25;;;;;;;3.65;1.70;;;;;;;24.39;37.46;93303.59;5034446;28;20049;-84
2023/09/09 11:18:52;;;;;;;2.25;1.30;;;;;;;24.39;37.69;93335.09;5028288;28;20088;-83
2023/09/09 11:21:22;;;;;;;2.92;1.58;;;;;;;24.60;38.41;93326.78;5028305;28;20103;-84
2023/09/09 11:23:49;;;;;;;4.50;2.30;;;;;;;24.60;38.30;93288.19;5031481;28;20119;-83
2023/09/09 11:26:18;;;;;;;5.10;1.52;;;;;;;24.68;36.76;93312.97;5029275;28;20510;-87
2023/09/09 11:28:47;;;;;;;2.50;1.23;;;;;;;24.68;36.46;93329.47;5027390;28;20060;-83
2023/09/09 11:31:14;;;;;;;5.00;1.60;;;;;;;24.34;37.50;93299.22;5027751;28;20122;-87
2023/09/09 11:33:41;;;;;;;6.75;1.73;;;;;;;24.54;37.73;93295.38;5028050;28;20063;-81
2023/09/09 11:36:08;;;;;;;3.08;1.33;;;;;;;24.86;36.84;93311.28;5029682;28;20076;-83
2023/09/09 11:38:35;;;;;;;5.63;1.58;;;;;;;24.93;36.18;93310.88;5029981;28;20543;-83